createdAt,value
2019-03-13T00:00:45.658Z,7.20
2019-03-13T00:03:14.992Z,6.80
2019-03-13T00:05:44.610Z,6.20
2019-03-13T00:08:13.527Z,5.80
2019-03-13T00:10:43.765Z,5.60
2019-03-13T00:13:13.798Z,5.50
2019-03-13T00:15:43.897Z,5.40
2019-03-13T00:18:15.259Z,5.30
2019-03-13T00:20:45.453Z,5.30
2019-03-13T00:23:13.843Z,5.30
2019-03-13T00:25:45.248Z,5.40
2019-03-13T00:28:15.299Z,5.40
2019-03-13T00:30:47.448Z,5.40
2019-03-13T00:33:18.524Z,5.30
2019-03-13T00:35:46.894Z,5.30
2019-03-13T00:38:27.322Z,5.20
2019-03-13T00:40:58.400Z,5.10
2019-03-13T00:43:29.749Z,5.00
2019-03-13T00:46:01.885Z,5.00
2019-03-13T00:48:33.220Z,5.00
2019-03-13T00:51:01.630Z,4.90
2019-03-13T00:53:32.898Z,4.90
2019-03-13T00:56:04.065Z,5.00
2019-03-13T00:58:32.445Z,5.10
2019-03-13T01:01:23.317Z,5.20
2019-03-13T01:04:11.078Z,5.20
2019-03-13T01:06:41.125Z,5.00
2019-03-13T01:09:09.512Z,4.90
2019-03-13T01:11:37.889Z,4.80
2019-03-13T01:14:08.042Z,4.80
2019-03-13T01:16:42.222Z,4.70
2019-03-13T01:19:10.610Z,4.70
2019-03-13T01:21:42.155Z,4.60
2019-03-13T01:24:12.195Z,4.50
2019-03-13T01:26:40.580Z,4.40
2019-03-13T01:29:10.599Z,4.40
2019-03-13T01:31:57.462Z,4.40
2019-03-13T01:34:30.516Z,4.20
2019-03-13T01:37:03.611Z,4.00
2019-03-13T01:39:32.012Z,3.90
2019-03-13T01:42:03.107Z,3.90
2019-03-13T01:44:31.308Z,3.80
2019-03-13T01:47:03.137Z,3.70
2019-03-13T01:49:34.261Z,3.50
2019-03-13T01:52:05.110Z,3.40
2019-03-13T01:54:35.897Z,3.50
2019-03-13T01:57:07.466Z,3.40
2019-03-13T01:59:40.678Z,3.30
2019-03-13T02:02:31.301Z,3.20
2019-03-13T02:05:02.413Z,3.20
2019-03-13T02:07:30.797Z,3.00
2019-03-13T02:10:05.409Z,3.00
2019-03-13T02:12:37.002Z,3.00
2019-03-13T02:15:14.030Z,3.10
2019-03-13T02:17:42.661Z,3.10
2019-03-13T02:20:12.099Z,3.20
2019-03-13T02:22:42.110Z,3.30
2019-03-13T02:25:15.090Z,3.20
2019-03-13T02:27:43.485Z,3.20
2019-03-13T02:30:23.245Z,3.30
2019-03-13T02:32:57.882Z,3.20
2019-03-13T02:35:26.270Z,3.30
2019-03-13T02:37:54.789Z,3.40
2019-03-13T02:40:23.248Z,3.30
2019-03-13T02:42:51.865Z,3.20
2019-03-13T02:45:23.369Z,3.10
2019-03-13T02:47:57.899Z,3.00
2019-03-13T02:50:26.959Z,2.90
2019-03-13T02:52:56.991Z,2.90
2019-03-13T02:55:30.988Z,2.90
2019-03-13T02:58:01.021Z,3.10
2019-03-13T03:00:39.631Z,3.00
2019-03-13T03:03:09.720Z,2.80
2019-03-13T03:05:38.105Z,2.80
2019-03-13T03:08:06.490Z,2.70
2019-03-13T03:10:37.553Z,2.70
2019-03-13T03:13:12.314Z,2.60
2019-03-13T03:15:40.725Z,2.70
2019-03-13T03:18:09.118Z,2.80
2019-03-13T03:20:40.670Z,2.90
2019-03-13T03:23:16.384Z,3.00
2019-03-13T03:25:51.391Z,3.00
2019-03-13T03:28:27.467Z,3.10
2019-03-13T03:30:58.578Z,3.20
2019-03-13T03:33:27.144Z,3.30
2019-03-13T03:35:59.002Z,3.20
2019-03-13T03:38:30.143Z,3.20
2019-03-13T03:40:58.775Z,3.20
2019-03-13T03:43:39.556Z,3.10
2019-03-13T03:45:59.256Z,3.10
2019-03-13T03:48:27.684Z,3.00
2019-03-13T03:51:01.690Z,2.90
2019-03-13T03:53:30.090Z,2.90
2019-03-13T03:55:58.704Z,2.90
2019-03-13T03:58:29.775Z,2.80
2019-03-13T04:01:01.907Z,2.80
2019-03-13T04:03:30.286Z,2.90
2019-03-13T04:05:59.858Z,2.90
2019-03-13T04:08:28.250Z,2.90
2019-03-13T04:10:58.276Z,2.90
2019-03-13T04:13:26.670Z,2.80
2019-03-13T04:16:00.726Z,2.80
2019-03-13T04:18:32.288Z,2.80
2019-03-13T04:21:01.233Z,2.80
2019-03-13T04:23:43.359Z,3.00
2019-03-13T04:26:15.017Z,3.10
2019-03-13T04:28:46.647Z,3.40
2019-03-13T04:31:18.231Z,3.50
2019-03-13T04:33:46.605Z,3.60
2019-03-13T04:36:17.677Z,3.70
2019-03-13T04:38:46.053Z,3.60
2019-03-13T04:41:14.439Z,3.50
2019-03-13T04:43:42.815Z,3.40
2019-03-13T04:46:14.149Z,3.20
2019-03-13T04:48:42.538Z,3.20
2019-03-13T04:51:15.638Z,3.20
2019-03-13T04:53:49.975Z,3.30
2019-03-13T04:56:21.331Z,3.40
2019-03-13T04:58:53.827Z,3.50
2019-03-13T05:01:22.286Z,3.50
2019-03-13T05:03:52.382Z,3.40
2019-03-13T05:06:26.993Z,3.40
2019-03-13T05:08:58.124Z,3.60
2019-03-13T05:11:28.222Z,3.70
2019-03-13T05:13:59.632Z,3.80
2019-03-13T05:16:28.011Z,3.80
2019-03-13T05:18:56.408Z,3.90
2019-03-13T05:21:32.708Z,3.90
2019-03-13T05:24:01.114Z,4.00
2019-03-13T05:26:29.519Z,4.00
2019-03-13T05:29:05.477Z,4.00
2019-03-13T05:31:36.826Z,4.00
2019-03-13T05:34:11.198Z,4.10
2019-03-13T05:36:39.817Z,4.10
2019-03-13T05:39:10.299Z,4.10
2019-03-13T05:41:38.896Z,4.00
2019-03-13T05:44:07.257Z,4.10
2019-03-13T05:46:37.195Z,4.10
2019-03-13T05:49:08.334Z,4.10
2019-03-13T05:51:40.286Z,4.20
2019-03-13T05:54:08.911Z,4.20
2019-03-13T05:56:40.938Z,4.20
2019-03-13T05:59:10.223Z,4.20
2019-03-13T06:01:38.842Z,4.20
2019-03-13T06:04:07.237Z,4.20
2019-03-13T06:06:35.620Z,4.20
2019-03-13T06:09:07.525Z,4.20
2019-03-13T06:11:38.664Z,4.20
2019-03-13T06:14:11.196Z,4.30
2019-03-13T06:16:44.124Z,4.50
2019-03-13T06:19:12.614Z,4.50
2019-03-13T06:21:41.272Z,4.60
2019-03-13T06:24:12.593Z,4.60
2019-03-13T06:26:41.020Z,4.70
2019-03-13T06:29:09.496Z,4.80
2019-03-13T06:31:38.593Z,4.70
2019-03-13T06:34:06.985Z,4.60
2019-03-13T06:36:38.067Z,4.50
2019-03-13T06:39:10.262Z,4.40
2019-03-13T06:41:38.647Z,4.40
2019-03-13T06:44:09.844Z,4.50
2019-03-13T06:46:39.352Z,4.40
2019-03-13T06:49:07.808Z,4.40
2019-03-13T06:51:36.181Z,4.40
2019-03-13T06:54:04.571Z,4.40
2019-03-13T06:56:35.861Z,4.40
2019-03-13T06:59:13.523Z,4.40
2019-03-13T07:01:50.508Z,4.60
2019-03-13T07:07:24.622Z,5.90
2019-03-13T07:10:00.424Z,5.90
2019-03-13T07:12:33.374Z,5.70
2019-03-13T07:15:12.707Z,5.30
2019-03-13T07:18:00.917Z,5.20
2019-03-13T07:20:47.526Z,5.40
2019-03-13T07:23:26.806Z,6.10
2019-03-13T07:25:59.592Z,6.60
2019-03-13T07:28:41.777Z,6.70
2019-03-13T07:31:11.806Z,6.70
2019-03-13T07:33:59.677Z,6.60
2019-03-13T07:36:32.665Z,6.70
2019-03-13T07:39:15.790Z,6.80
2019-03-13T07:41:48.786Z,6.90
2019-03-13T07:44:18.814Z,7.00
2019-03-13T07:46:56.927Z,7.10
2019-03-13T07:49:30.121Z,7.60
2019-03-13T07:52:12.275Z,7.90
2019-03-13T07:54:51.135Z,7.70
2019-03-13T07:57:21.182Z,7.30
2019-03-13T08:00:03.289Z,7.10
2019-03-13T08:02:42.270Z,7.00
2019-03-13T08:05:29.056Z,7.10
2019-03-13T08:08:15.871Z,7.30
2019-03-13T08:11:00.875Z,7.90
2019-03-13T08:13:34.561Z,8.50
2019-03-13T08:16:10.322Z,9.10
2019-03-13T08:18:43.179Z,9.40
2019-03-13T08:21:22.738Z,9.90
2019-03-13T08:24:04.794Z,10.00
2019-03-13T08:26:43.834Z,10.00
2019-03-13T08:29:17.509Z,9.70
2019-03-13T08:32:09.836Z,9.50
2019-03-13T08:34:45.800Z,9.80
2019-03-13T08:37:24.083Z,9.90
2019-03-13T08:40:00.507Z,10.20
2019-03-13T08:42:30.647Z,10.20
2019-03-13T08:45:15.949Z,9.90
2019-03-13T08:48:05.198Z,9.30
2019-03-13T08:50:37.845Z,8.70
2019-03-13T08:53:29.218Z,8.30
2019-03-13T08:56:05.393Z,8.10
2019-03-13T08:58:38.069Z,8.10
2019-03-13T09:01:27.862Z,8.00
2019-03-13T09:04:03.635Z,8.10
2019-03-13T09:06:49.693Z,7.90
2019-03-13T09:09:21.507Z,7.90
2019-03-13T09:12:07.837Z,7.90
2019-03-13T09:14:38.126Z,7.90
2019-03-13T09:17:13.289Z,8.00
2019-03-13T09:19:49.066Z,7.90
2019-03-13T09:22:19.089Z,8.00
2019-03-13T09:24:54.105Z,8.10
2019-03-13T09:27:45.022Z,8.20
2019-03-13T09:30:29.728Z,8.10
2019-03-13T09:33:02.333Z,8.10
2019-03-13T09:35:41.237Z,7.80
2019-03-13T09:38:30.610Z,7.10
2019-03-13T09:41:16.846Z,6.60
2019-03-13T09:44:06.787Z,6.50
2019-03-13T09:46:45.825Z,6.50
2019-03-13T09:49:15.863Z,6.50
2019-03-13T09:51:49.035Z,6.50
2019-03-13T09:54:19.062Z,6.60
2019-03-13T09:57:05.616Z,6.80
2019-03-13T09:59:43.565Z,7.00
2019-03-13T10:02:22.193Z,7.20
2019-03-13T10:05:00.735Z,7.30
2019-03-13T10:07:55.927Z,7.40
2019-03-13T10:10:28.409Z,7.50
2019-03-13T10:13:04.978Z,7.50
2019-03-13T10:15:37.917Z,7.60
2019-03-13T10:18:10.958Z,7.60
2019-03-13T10:20:53.127Z,7.60
2019-03-13T10:23:29.101Z,7.60
2019-03-13T10:26:07.970Z,7.80
2019-03-13T10:28:41.166Z,7.80
2019-03-13T10:31:14.218Z,7.90
2019-03-13T10:33:46.905Z,8.00
2019-03-13T10:36:22.937Z,8.20
2019-03-13T10:38:55.786Z,8.50
2019-03-13T10:41:38.154Z,8.50
2019-03-13T10:44:08.169Z,8.40
2019-03-13T10:46:38.198Z,8.30
2019-03-13T10:49:08.475Z,8.50
2019-03-13T10:51:41.328Z,8.70
2019-03-13T10:54:14.169Z,9.00
2019-03-13T10:56:49.908Z,9.30
2019-03-13T10:59:40.965Z,9.70
2019-03-13T11:02:19.528Z,10.40
2019-03-13T11:04:55.738Z,10.60
2019-03-13T11:07:31.465Z,10.80
2019-03-13T11:10:04.449Z,10.80
2019-03-13T11:12:40.437Z,10.90
2019-03-13T11:15:13.588Z,10.60
2019-03-13T11:17:52.465Z,10.20
2019-03-13T11:20:40.483Z,9.80
2019-03-13T11:23:25.469Z,9.50
2019-03-13T11:26:08.693Z,9.00
2019-03-13T11:28:47.833Z,8.80
2019-03-13T11:31:39.593Z,8.80
2019-03-13T11:34:09.633Z,8.80
2019-03-13T11:36:58.429Z,8.80
2019-03-13T11:39:49.602Z,8.70
2019-03-13T11:42:25.094Z,8.80
2019-03-13T11:45:03.856Z,9.00
2019-03-13T11:47:51.241Z,9.00
2019-03-13T11:50:32.576Z,9.20
2019-03-13T11:53:02.046Z,9.20
2019-03-13T11:55:40.456Z,9.30
2019-03-13T11:58:10.659Z,9.40
2019-03-13T12:00:57.201Z,9.50
2019-03-13T12:03:43.281Z,9.70
2019-03-13T12:06:28.601Z,9.20
2019-03-13T12:09:10.619Z,9.00
2019-03-13T12:11:46.317Z,9.00
2019-03-13T12:14:19.074Z,9.10
2019-03-13T12:17:01.073Z,9.10
2019-03-13T12:19:48.000Z,9.10
2019-03-13T12:22:32.605Z,9.10
2019-03-13T12:25:14.838Z,9.40
2019-03-13T12:27:59.780Z,9.60
2019-03-13T12:30:29.804Z,9.70
2019-03-13T12:33:11.893Z,9.60
2019-03-13T12:35:58.453Z,9.70
2019-03-13T12:38:43.730Z,9.40
2019-03-13T12:41:19.388Z,9.00
2019-03-13T12:43:51.413Z,9.10
2019-03-13T12:46:38.681Z,9.40
2019-03-13T12:49:20.398Z,9.60
2019-03-13T12:52:07.777Z,9.60
2019-03-13T12:54:45.329Z,9.70
2019-03-13T12:57:30.149Z,9.70
2019-03-13T13:00:14.813Z,9.60
2019-03-13T13:03:01.141Z,9.30
2019-03-13T13:05:41.330Z,9.20
2019-03-13T13:08:28.470Z,9.00
2019-03-13T13:11:07.702Z,8.80
2019-03-13T13:13:53.253Z,8.70
2019-03-13T13:16:29.522Z,8.60
2019-03-13T13:18:57.913Z,8.60
2019-03-13T13:21:29.106Z,8.70
2019-03-13T13:23:57.502Z,8.80
2019-03-13T13:26:26.139Z,8.60
2019-03-13T13:28:57.761Z,8.60
2019-03-13T13:31:26.381Z,8.80
2019-03-13T13:33:57.744Z,9.20
2019-03-13T13:36:27.030Z,9.70
2019-03-13T13:38:57.806Z,9.80
2019-03-13T13:41:26.193Z,9.90
2019-03-13T13:43:54.585Z,9.80
2019-03-13T13:46:26.202Z,9.50
2019-03-13T13:48:56.913Z,9.00
2019-03-13T13:51:32.500Z,8.70
2019-03-13T13:54:00.134Z,8.50
2019-03-13T13:56:31.153Z,8.60
2019-03-13T13:59:01.541Z,8.60
2019-03-13T14:01:32.701Z,8.50
2019-03-13T14:04:02.596Z,8.60
2019-03-13T14:06:31.229Z,8.80
2019-03-13T14:08:59.982Z,9.00
2019-03-13T14:11:31.129Z,9.20
2019-03-13T14:14:01.177Z,9.20
2019-03-13T14:16:30.337Z,9.20
2019-03-13T14:18:58.729Z,9.00
2019-03-13T14:21:27.110Z,8.90
2019-03-13T14:23:58.321Z,8.90
2019-03-13T14:26:28.470Z,8.90
2019-03-13T14:28:58.496Z,9.00
2019-03-13T14:31:26.885Z,8.90
2019-03-13T14:33:55.265Z,8.80
2019-03-13T14:36:26.858Z,8.60
2019-03-13T14:38:58.141Z,8.70
2019-03-13T14:41:27.042Z,8.80
2019-03-13T14:44:01.340Z,8.90
2019-03-13T14:46:29.709Z,9.00
2019-03-13T14:49:00.802Z,8.90
2019-03-13T14:51:29.182Z,8.90
2019-03-13T14:54:03.996Z,9.00
2019-03-13T14:56:32.360Z,9.10
2019-03-13T14:59:07.938Z,9.10
2019-03-13T15:01:42.261Z,8.90
2019-03-13T15:04:10.650Z,8.90
2019-03-13T15:06:39.083Z,8.60
2019-03-13T15:09:17.086Z,8.40
2019-03-13T15:11:45.726Z,8.40
2019-03-13T15:14:17.058Z,8.40
2019-03-13T15:16:48.002Z,8.40
2019-03-13T15:19:16.417Z,8.30
2019-03-13T15:21:51.798Z,8.30
2019-03-13T15:24:17.631Z,8.30
2019-03-13T15:26:54.558Z,8.30
2019-03-13T15:29:25.638Z,8.20
2019-03-13T15:31:56.725Z,8.10
2019-03-13T15:34:28.189Z,8.10
2019-03-13T15:36:56.581Z,8.10
2019-03-13T15:39:28.085Z,8.20
2019-03-13T15:41:56.706Z,8.30
2019-03-13T15:44:25.085Z,8.40
2019-03-13T15:46:56.295Z,8.40
2019-03-13T15:49:27.612Z,8.30
2019-03-13T15:51:57.637Z,8.20
2019-03-13T15:54:29.030Z,8.10
2019-03-13T15:56:58.690Z,7.90
2019-03-13T15:59:36.001Z,7.80
2019-03-13T16:02:09.730Z,7.90
2019-03-13T16:04:38.128Z,7.80
2019-03-13T16:07:09.425Z,7.70
2019-03-13T16:09:41.008Z,7.60
2019-03-13T16:12:09.393Z,7.50
2019-03-13T16:14:42.393Z,7.50
2019-03-13T16:17:13.560Z,7.50
2019-03-13T16:19:53.857Z,7.50
2019-03-13T16:22:23.925Z,7.60
2019-03-13T16:24:52.387Z,7.60
2019-03-13T16:27:23.445Z,7.60
2019-03-13T16:29:54.985Z,7.60
2019-03-13T16:32:26.478Z,7.60
2019-03-13T16:34:56.537Z,7.60
2019-03-13T16:37:26.577Z,7.50
2019-03-13T16:39:56.596Z,7.50
2019-03-13T16:42:24.984Z,7.50
2019-03-13T16:44:58.000Z,7.50
2019-03-13T16:47:26.380Z,7.40
2019-03-13T16:49:57.713Z,7.40
2019-03-13T16:52:26.165Z,7.40
2019-03-13T16:54:54.541Z,7.40
2019-03-13T16:57:25.109Z,7.40
2019-03-13T17:00:00.550Z,7.40
2019-03-13T17:02:32.117Z,7.30
2019-03-13T17:05:03.703Z,7.30
2019-03-13T17:07:32.106Z,7.20
2019-03-13T17:10:05.265Z,7.20
2019-03-13T17:12:39.490Z,7.20
2019-03-13T17:15:20.180Z,7.20
2019-03-13T17:17:51.478Z,7.10
2019-03-13T17:20:39.877Z,7.00
2019-03-13T17:23:09.981Z,6.90
2019-03-13T17:25:38.657Z,6.80
2019-03-13T17:28:09.809Z,6.70
2019-03-13T17:30:40.437Z,6.70
2019-03-13T17:33:09.069Z,6.60
2019-03-13T17:35:37.469Z,6.50
2019-03-13T17:38:08.477Z,6.40
2019-03-13T17:40:39.829Z,6.30
2019-03-13T17:43:11.118Z,6.20
2019-03-13T17:45:41.210Z,6.20
2019-03-13T17:48:09.713Z,6.10
2019-03-13T17:50:41.361Z,6.20
2019-03-13T17:53:11.385Z,6.30
2019-03-13T17:55:40.021Z,6.30
2019-03-13T17:58:08.413Z,6.30
2019-03-13T18:00:46.813Z,6.30
2019-03-13T18:03:15.213Z,6.30
2019-03-13T18:05:46.227Z,6.30
2019-03-13T18:08:14.637Z,6.30
2019-03-13T18:10:44.991Z,6.40
2019-03-13T18:13:13.590Z,6.40
2019-03-13T18:15:41.979Z,6.40
2019-03-13T18:18:10.426Z,6.50
2019-03-13T18:20:38.805Z,6.50
2019-03-13T18:23:07.520Z,6.50
2019-03-13T18:25:35.897Z,6.40
2019-03-13T18:28:07.278Z,6.10
2019-03-13T18:30:36.601Z,6.00
2019-03-13T18:33:13.139Z,5.80
2019-03-13T18:35:50.453Z,5.70
2019-03-13T18:38:21.810Z,5.50
2019-03-13T18:40:51.812Z,5.50
2019-03-13T18:43:20.243Z,5.40
2019-03-13T18:45:54.325Z,5.40
2019-03-13T18:48:28.705Z,5.40
2019-03-13T18:50:58.477Z,5.30
2019-03-13T18:53:26.874Z,5.40
2019-03-13T18:55:56.131Z,5.40
2019-03-13T18:58:24.528Z,5.40
2019-03-13T19:00:53.159Z,5.40
2019-03-13T19:03:22.674Z,5.40
2019-03-13T19:05:54.862Z,5.40
2019-03-13T19:08:27.294Z,5.40
2019-03-13T19:10:56.514Z,5.20
2019-03-13T19:13:24.924Z,5.00
2019-03-13T19:15:53.420Z,4.70
2019-03-13T19:18:21.789Z,4.40
2019-03-13T19:20:54.095Z,4.20
2019-03-13T19:23:26.286Z,4.10
2019-03-13T19:26:16.896Z,4.00
2019-03-13T19:28:49.805Z,4.00
2019-03-13T19:31:20.965Z,4.00
2019-03-13T19:33:51.055Z,4.00
2019-03-13T19:36:19.426Z,4.00
2019-03-13T19:38:50.754Z,4.00
2019-03-13T19:41:19.166Z,4.00
2019-03-13T19:43:47.793Z,4.00
2019-03-13T19:46:18.945Z,4.00
2019-03-13T19:48:50.573Z,4.10
2019-03-13T19:51:18.981Z,4.20
2019-03-13T19:53:49.111Z,4.20
2019-03-13T19:56:20.154Z,4.30
2019-03-13T19:58:48.665Z,4.30
2019-03-13T20:01:19.788Z,4.30
2019-03-13T20:03:55.007Z,4.40
2019-03-13T20:06:19.784Z,4.40
2019-03-13T20:08:48.230Z,4.40
2019-03-13T20:11:19.445Z,4.40
2019-03-13T20:13:50.863Z,4.40
2019-03-13T20:16:19.238Z,4.30
2019-03-13T20:18:50.566Z,4.20
2019-03-13T20:21:18.945Z,4.20
2019-03-13T20:23:47.337Z,4.20
2019-03-13T20:26:15.731Z,4.20
2019-03-13T20:28:46.952Z,4.10
2019-03-13T20:31:15.330Z,4.10
2019-03-13T20:33:43.718Z,4.10
2019-03-13T20:36:12.106Z,4.00
2019-03-13T20:38:43.393Z,4.00
2019-03-13T20:41:11.802Z,4.00
2019-03-13T20:43:40.402Z,4.00
2019-03-13T20:46:08.797Z,4.00
2019-03-13T20:48:39.066Z,3.90
2019-03-13T20:51:09.872Z,3.90
2019-03-13T20:53:38.520Z,3.80
2019-03-13T20:56:09.801Z,3.80
2019-03-13T20:58:38.353Z,3.80
2019-03-13T21:01:07.511Z,3.80
2019-03-13T21:03:38.877Z,3.70
2019-03-13T21:06:07.270Z,3.70
2019-03-13T21:08:35.749Z,3.60
2019-03-13T21:11:04.415Z,3.60
2019-03-13T21:13:32.802Z,3.60
2019-03-13T21:16:04.182Z,3.60
2019-03-13T21:18:32.633Z,3.60
2019-03-13T21:21:09.985Z,3.70
2019-03-13T21:23:38.355Z,3.70
2019-03-13T21:26:08.525Z,3.80
2019-03-13T21:28:36.961Z,3.90
2019-03-13T21:31:09.005Z,3.90
2019-03-13T21:33:46.468Z,3.80
2019-03-13T21:36:14.887Z,3.70
2019-03-13T21:38:43.271Z,3.60
2019-03-13T21:41:15.976Z,3.60
2019-03-13T21:43:41.773Z,3.60
2019-03-13T21:46:10.191Z,3.70
2019-03-13T21:48:41.643Z,3.70
2019-03-13T21:51:10.013Z,3.80
2019-03-13T21:53:41.146Z,3.80
2019-03-13T21:56:09.540Z,3.80
2019-03-13T21:58:37.917Z,3.80
2019-03-13T22:01:19.116Z,3.80
2019-03-13T22:03:38.308Z,3.90
2019-03-13T22:06:28.471Z,3.90
2019-03-13T22:08:45.660Z,3.90
2019-03-13T22:11:14.273Z,4.00
2019-03-13T22:13:45.678Z,4.00
2019-03-13T22:16:17.012Z,4.00
2019-03-13T22:18:45.510Z,4.00
2019-03-13T22:21:15.721Z,3.90
2019-03-13T22:23:46.004Z,3.80
2019-03-13T22:26:16.849Z,3.60
2019-03-13T22:28:45.498Z,3.50
2019-03-13T22:31:13.881Z,3.40
2019-03-13T22:33:48.414Z,3.30
2019-03-13T22:36:27.819Z,3.20
2019-03-13T22:38:59.162Z,3.10
2019-03-13T22:41:27.562Z,3.30
2019-03-13T22:43:56.182Z,3.50
2019-03-13T22:46:26.225Z,3.70
2019-03-13T22:49:00.474Z,3.90
2019-03-13T22:51:29.117Z,3.90
2019-03-13T22:54:03.461Z,3.90
2019-03-13T22:56:32.109Z,3.80
2019-03-13T22:59:09.807Z,3.70
2019-03-13T23:01:42.979Z,3.60
2019-03-13T23:04:14.138Z,3.50
2019-03-13T23:06:47.243Z,3.30
2019-03-13T23:09:21.525Z,3.20
2019-03-13T23:11:55.642Z,3.20
2019-03-13T23:14:26.065Z,3.20
2019-03-13T23:16:54.449Z,3.20
2019-03-13T23:19:23.313Z,3.10
2019-03-13T23:21:54.870Z,3.10
2019-03-13T23:24:23.344Z,3.10
2019-03-13T23:26:54.366Z,3.10
2019-03-13T23:29:25.955Z,3.10
2019-03-13T23:31:54.337Z,3.10
2019-03-13T23:34:25.447Z,3.10
2019-03-13T23:37:00.209Z,3.10
2019-03-13T23:39:30.201Z,3.00
2019-03-13T23:42:02.341Z,3.10
2019-03-13T23:44:30.689Z,3.20
2019-03-13T23:47:00.734Z,3.30
2019-03-13T23:49:31.848Z,3.20
2019-03-13T23:52:04.885Z,3.30
2019-03-13T23:54:34.913Z,3.30
2019-03-13T23:57:04.954Z,3.40
2019-03-13T23:59:36.534Z,3.50
